sensor_id;sensor_type;location;lat;lon;timestamp;temperature;humidity
28484;DHT22;15704;48.834;8.736;2023-12-07T00:00:16;15.70;84.10
28484;DHT22;15704;48.834;8.736;2023-12-07T00:02:43;15.80;84.10
28484;DHT22;15704;48.834;8.736;2023-12-07T00:05:10;15.70;84.00
28484;DHT22;15704;48.834;8.736;2023-12-07T00:07:37;15.80;84.00
28484;DHT22;15704;48.834;8.736;2023-12-07T00:10:04;15.80;84.10
28484;DHT22;15704;48.834;8.736;2023-12-07T00:12:32;15.80;84.00
28484;DHT22;15704;48.834;8.736;2023-12-07T00:14:58;15.80;84.00
28484;DHT22;15704;48.834;8.736;2023-12-07T00:17:25;15.80;84.10
28484;DHT22;15704;48.834;8.736;2023-12-07T00:19:52;15.80;84.10
28484;DHT22;15704;48.834;8.736;2023-12-07T00:22:22;15.80;84.10
28484;DHT22;15704;48.834;8.736;2023-12-07T00:24:52;15.80;84.10
28484;DHT22;15704;48.834;8.736;2023-12-07T00:27:18;15.80;84.10
28484;DHT22;15704;48.834;8.736;2023-12-07T00:29:45;15.80;84.00
28484;DHT22;15704;48.834;8.736;2023-12-07T00:32:12;15.80;84.00
28484;DHT22;15704;48.834;8.736;2023-12-07T00:34:39;15.80;84.00
28484;DHT22;15704;48.834;8.736;2023-12-07T00:37:06;15.80;84.00
28484;DHT22;15704;48.834;8.736;2023-12-07T00:39:34;15.80;84.00
28484;DHT22;15704;48.834;8.736;2023-12-07T00:42:00;15.80;84.00
28484;DHT22;15704;48.834;8.736;2023-12-07T00:44:27;15.80;84.70
28484;DHT22;15704;48.834;8.736;2023-12-07T00:46:54;15.80;84.00
28484;DHT22;15704;48.834;8.736;2023-12-07T00:49:21;15.80;84.00
28484;DHT22;15704;48.834;8.736;2023-12-07T00:51:48;15.80;84.00
28484;DHT22;15704;48.834;8.736;2023-12-07T00:54:15;15.80;84.00
28484;DHT22;15704;48.834;8.736;2023-12-07T00:56:42;15.80;84.00
28484;DHT22;15704;48.834;8.736;2023-12-07T00:59:09;15.80;83.90
28484;DHT22;15704;48.834;8.736;2023-12-07T01:01:35;15.80;84.00
28484;DHT22;15704;48.834;8.736;2023-12-07T01:04:05;15.80;84.00
28484;DHT22;15704;48.834;8.736;2023-12-07T01:06:32;15.80;84.00
28484;DHT22;15704;48.834;8.736;2023-12-07T01:08:59;15.80;84.00
28484;DHT22;15704;48.834;8.736;2023-12-07T01:11:26;15.80;84.10
28484;DHT22;15704;48.834;8.736;2023-12-07T01:13:53;15.80;83.90
28484;DHT22;15704;48.834;8.736;2023-12-07T01:16:20;15.80;83.90
28484;DHT22;15704;48.834;8.736;2023-12-07T01:18:47;15.80;83.90
28484;DHT22;15704;48.834;8.736;2023-12-07T01:21:14;15.80;83.90
28484;DHT22;15704;48.834;8.736;2023-12-07T01:23:41;15.80;83.90
28484;DHT22;15704;48.834;8.736;2023-12-07T01:26:09;15.80;84.00
28484;DHT22;15704;48.834;8.736;2023-12-07T01:28:36;15.80;83.90
28484;DHT22;15704;48.834;8.736;2023-12-07T01:31:03;15.80;84.00
28484;DHT22;15704;48.834;8.736;2023-12-07T01:33:30;15.80;84.00
28484;DHT22;15704;48.834;8.736;2023-12-07T01:35:57;15.80;83.90
28484;DHT22;15704;48.834;8.736;2023-12-07T01:38:24;15.80;84.00
28484;DHT22;15704;48.834;8.736;2023-12-07T01:40:51;15.80;83.90
28484;DHT22;15704;48.834;8.736;2023-12-07T01:43:19;15.80;84.00
28484;DHT22;15704;48.834;8.736;2023-12-07T01:45:47;15.80;84.00
28484;DHT22;15704;48.834;8.736;2023-12-07T01:48:14;15.80;84.70
28484;DHT22;15704;48.834;8.736;2023-12-07T01:50:42;15.80;84.00
28484;DHT22;15704;48.834;8.736;2023-12-07T01:53:09;15.80;84.10
28484;DHT22;15704;48.834;8.736;2023-12-07T01:55:36;15.70;84.10
28484;DHT22;15704;48.834;8.736;2023-12-07T01:58:04;15.70;84.10
28484;DHT22;15704;48.834;8.736;2023-12-07T02:00:31;15.80;84.20
28484;DHT22;15704;48.834;8.736;2023-12-07T02:03:02;15.70;84.20
28484;DHT22;15704;48.834;8.736;2023-12-07T02:05:31;15.70;84.30
28484;DHT22;15704;48.834;8.736;2023-12-07T02:07:58;15.70;84.30
28484;DHT22;15704;48.834;8.736;2023-12-07T02:10:28;15.70;84.30
28484;DHT22;15704;48.834;8.736;2023-12-07T02:12:55;15.70;84.40
28484;DHT22;15704;48.834;8.736;2023-12-07T02:15:22;15.60;84.40
28484;DHT22;15704;48.834;8.736;2023-12-07T02:22:53;15.60;84.40
28484;DHT22;15704;48.834;8.736;2023-12-07T02:25:26;15.70;85.30
28484;DHT22;15704;48.834;8.736;2023-12-07T02:27:55;15.70;84.40
28484;DHT22;15704;48.834;8.736;2023-12-07T02:30:22;15.60;84.40
28484;DHT22;15704;48.834;8.736;2023-12-07T02:32:49;15.60;84.40
28484;DHT22;15704;48.834;8.736;2023-12-07T02:35:16;15.60;84.40
28484;DHT22;15704;48.834;8.736;2023-12-07T02:37:49;15.60;84.40
28484;DHT22;15704;48.834;8.736;2023-12-07T02:40:19;15.60;84.40
28484;DHT22;15704;48.834;8.736;2023-12-07T02:42:47;15.60;84.40
28484;DHT22;15704;48.834;8.736;2023-12-07T02:45:15;15.60;84.40
28484;DHT22;15704;48.834;8.736;2023-12-07T02:47:42;15.60;84.40
28484;DHT22;15704;48.834;8.736;2023-12-07T02:50:12;15.60;84.30
28484;DHT22;15704;48.834;8.736;2023-12-07T02:52:40;15.60;84.40
28484;DHT22;15704;48.834;8.736;2023-12-07T02:55:07;15.60;84.40
28484;DHT22;15704;48.834;8.736;2023-12-07T02:57:36;15.60;84.40
28484;DHT22;15704;48.834;8.736;2023-12-07T03:00:04;15.60;84.40
28484;DHT22;15704;48.834;8.736;2023-12-07T03:02:35;15.60;84.40
28484;DHT22;15704;48.834;8.736;2023-12-07T03:05:03;15.60;84.40
28484;DHT22;15704;48.834;8.736;2023-12-07T03:07:30;15.60;84.40
28484;DHT22;15704;48.834;8.736;2023-12-07T03:09:57;15.60;84.30
28484;DHT22;15704;48.834;8.736;2023-12-07T03:12:24;15.60;84.30
28484;DHT22;15704;48.834;8.736;2023-12-07T03:14:52;15.60;84.40
28484;DHT22;15704;48.834;8.736;2023-12-07T03:17:19;15.70;84.40
28484;DHT22;15704;48.834;8.736;2023-12-07T03:19:46;15.60;84.30
28484;DHT22;15704;48.834;8.736;2023-12-07T03:22:12;15.60;84.30
28484;DHT22;15704;48.834;8.736;2023-12-07T03:24:45;15.60;84.40
28484;DHT22;15704;48.834;8.736;2023-12-07T03:27:12;15.60;84.30
28484;DHT22;15704;48.834;8.736;2023-12-07T03:29:39;15.60;84.30
28484;DHT22;15704;48.834;8.736;2023-12-07T03:32:06;15.60;84.30
28484;DHT22;15704;48.834;8.736;2023-12-07T03:34:33;15.60;84.30
28484;DHT22;15704;48.834;8.736;2023-12-07T03:37:00;15.60;85.10
28484;DHT22;15704;48.834;8.736;2023-12-07T03:39:27;15.60;84.20
28484;DHT22;15704;48.834;8.736;2023-12-07T03:41:56;15.60;84.30
28484;DHT22;15704;48.834;8.736;2023-12-07T03:44:22;15.60;84.30
28484;DHT22;15704;48.834;8.736;2023-12-07T03:46:49;15.60;84.30
28484;DHT22;15704;48.834;8.736;2023-12-07T03:49:16;15.60;84.20
28484;DHT22;15704;48.834;8.736;2023-12-07T03:51:46;15.60;84.20
28484;DHT22;15704;48.834;8.736;2023-12-07T03:54:13;15.60;84.20
28484;DHT22;15704;48.834;8.736;2023-12-07T03:56:39;15.60;84.20
28484;DHT22;15704;48.834;8.736;2023-12-07T03:59:09;15.60;84.40
28484;DHT22;15704;48.834;8.736;2023-12-07T04:01:36;15.60;84.30
28484;DHT22;15704;48.834;8.736;2023-12-07T04:04:03;15.60;84.30
28484;DHT22;15704;48.834;8.736;2023-12-07T04:06:31;15.60;84.30
28484;DHT22;15704;48.834;8.736;2023-12-07T04:08:58;15.60;84.30
28484;DHT22;15704;48.834;8.736;2023-12-07T04:11:25;15.60;84.30
28484;DHT22;15704;48.834;8.736;2023-12-07T04:13:52;15.60;84.30
28484;DHT22;15704;48.834;8.736;2023-12-07T04:16:18;15.50;84.30
28484;DHT22;15704;48.834;8.736;2023-12-07T04:18:46;15.60;84.40
28484;DHT22;15704;48.834;8.736;2023-12-07T04:21:12;15.60;84.30
28484;DHT22;15704;48.834;8.736;2023-12-07T04:23:39;15.60;84.20
28484;DHT22;15704;48.834;8.736;2023-12-07T04:26:08;15.60;84.30
28484;DHT22;15704;48.834;8.736;2023-12-07T04:28:35;15.60;84.40
28484;DHT22;15704;48.834;8.736;2023-12-07T04:31:03;15.50;84.20
28484;DHT22;15704;48.834;8.736;2023-12-07T04:33:30;15.60;84.30
28484;DHT22;15704;48.834;8.736;2023-12-07T04:35:57;15.50;84.30
28484;DHT22;15704;48.834;8.736;2023-12-07T04:38:24;15.50;84.20
28484;DHT22;15704;48.834;8.736;2023-12-07T04:40:51;15.60;84.30
28484;DHT22;15704;48.834;8.736;2023-12-07T04:43:18;15.50;84.30
28484;DHT22;15704;48.834;8.736;2023-12-07T04:45:45;15.60;84.30
28484;DHT22;15704;48.834;8.736;2023-12-07T04:48:12;15.50;84.20
28484;DHT22;15704;48.834;8.736;2023-12-07T04:50:40;15.50;84.30
28484;DHT22;15704;48.834;8.736;2023-12-07T04:53:06;15.60;84.30
28484;DHT22;15704;48.834;8.736;2023-12-07T04:55:33;15.60;84.20
28484;DHT22;15704;48.834;8.736;2023-12-07T04:58:00;15.60;84.20
28484;DHT22;15704;48.834;8.736;2023-12-07T05:00:27;15.60;84.20
28484;DHT22;15704;48.834;8.736;2023-12-07T05:02:54;15.60;84.10
28484;DHT22;15704;48.834;8.736;2023-12-07T05:05:21;15.60;84.10
28484;DHT22;15704;48.834;8.736;2023-12-07T05:07:48;15.60;84.20
28484;DHT22;15704;48.834;8.736;2023-12-07T05:10:15;15.50;84.10
28484;DHT22;15704;48.834;8.736;2023-12-07T05:12:42;15.60;84.30
28484;DHT22;15704;48.834;8.736;2023-12-07T05:15:09;15.50;84.10
28484;DHT22;15704;48.834;8.736;2023-12-07T05:17:36;15.50;84.10
28484;DHT22;15704;48.834;8.736;2023-12-07T05:20:03;15.60;84.10
28484;DHT22;15704;48.834;8.736;2023-12-07T05:22:31;15.50;84.10
28484;DHT22;15704;48.834;8.736;2023-12-07T05:24:58;15.60;84.10
28484;DHT22;15704;48.834;8.736;2023-12-07T05:27:25;15.60;84.00
28484;DHT22;15704;48.834;8.736;2023-12-07T05:29:52;15.60;84.00
28484;DHT22;15704;48.834;8.736;2023-12-07T05:32:19;15.60;84.00
28484;DHT22;15704;48.834;8.736;2023-12-07T05:34:46;15.60;84.00
28484;DHT22;15704;48.834;8.736;2023-12-07T05:37:13;15.60;84.00
28484;DHT22;15704;48.834;8.736;2023-12-07T05:39:39;15.60;83.80
28484;DHT22;15704;48.834;8.736;2023-12-07T05:42:07;15.60;83.90
28484;DHT22;15704;48.834;8.736;2023-12-07T05:44:34;15.60;83.90
28484;DHT22;15704;48.834;8.736;2023-12-07T05:47:01;15.60;84.00
28484;DHT22;15704;48.834;8.736;2023-12-07T05:49:27;15.60;84.00
28484;DHT22;15704;48.834;8.736;2023-12-07T05:51:54;15.60;83.90
28484;DHT22;15704;48.834;8.736;2023-12-07T05:54:21;15.60;84.00
28484;DHT22;15704;48.834;8.736;2023-12-07T05:56:49;15.60;83.90
28484;DHT22;15704;48.834;8.736;2023-12-07T05:59:16;15.60;83.90
28484;DHT22;15704;48.834;8.736;2023-12-07T06:01:43;15.60;84.00
28484;DHT22;15704;48.834;8.736;2023-12-07T06:04:10;15.50;83.90
28484;DHT22;15704;48.834;8.736;2023-12-07T06:06:39;15.60;84.00
28484;DHT22;15704;48.834;8.736;2023-12-07T06:09:06;15.60;84.00
28484;DHT22;15704;48.834;8.736;2023-12-07T06:11:36;15.60;84.00
28484;DHT22;15704;48.834;8.736;2023-12-07T06:14:03;15.60;83.90
28484;DHT22;15704;48.834;8.736;2023-12-07T06:16:32;15.60;83.80
28484;DHT22;15704;48.834;8.736;2023-12-07T06:18:59;15.60;83.80
28484;DHT22;15704;48.834;8.736;2023-12-07T06:21:26;15.60;83.80
28484;DHT22;15704;48.834;8.736;2023-12-07T06:23:56;15.60;83.80
28484;DHT22;15704;48.834;8.736;2023-12-07T06:26:23;15.60;83.80
28484;DHT22;15704;48.834;8.736;2023-12-07T06:28:50;15.60;83.80
28484;DHT22;15704;48.834;8.736;2023-12-07T06:31:18;15.60;83.80
28484;DHT22;15704;48.834;8.736;2023-12-07T06:33:48;15.60;83.80
28484;DHT22;15704;48.834;8.736;2023-12-07T06:36:20;15.60;83.70
28484;DHT22;15704;48.834;8.736;2023-12-07T06:38:47;15.60;83.70
28484;DHT22;15704;48.834;8.736;2023-12-07T06:41:14;15.60;83.70
28484;DHT22;15704;48.834;8.736;2023-12-07T06:43:42;15.60;83.70
28484;DHT22;15704;48.834;8.736;2023-12-07T06:46:14;15.60;83.60
28484;DHT22;15704;48.834;8.736;2023-12-07T06:48:41;15.60;83.60
28484;DHT22;15704;48.834;8.736;2023-12-07T06:51:08;15.60;83.70
28484;DHT22;15704;48.834;8.736;2023-12-07T06:53:35;15.60;83.70
28484;DHT22;15704;48.834;8.736;2023-12-07T06:56:02;15.60;83.60
28484;DHT22;15704;48.834;8.736;2023-12-07T06:58:29;15.60;83.70
28484;DHT22;15704;48.834;8.736;2023-12-07T07:00:55;15.60;83.60
28484;DHT22;15704;48.834;8.736;2023-12-07T07:03:24;15.60;83.70
28484;DHT22;15704;48.834;8.736;2023-12-07T07:05:51;15.60;83.70
28484;DHT22;15704;48.834;8.736;2023-12-07T07:08:18;15.60;83.70
28484;DHT22;15704;48.834;8.736;2023-12-07T07:10:45;15.60;83.70
28484;DHT22;15704;48.834;8.736;2023-12-07T07:13:15;15.50;83.70
28484;DHT22;15704;48.834;8.736;2023-12-07T07:15:43;15.60;83.70
28484;DHT22;15704;48.834;8.736;2023-12-07T07:18:10;15.60;83.70
28484;DHT22;15704;48.834;8.736;2023-12-07T07:20:37;15.60;83.60
28484;DHT22;15704;48.834;8.736;2023-12-07T07:23:05;15.60;83.70
28484;DHT22;15704;48.834;8.736;2023-12-07T07:25:32;15.60;83.60
28484;DHT22;15704;48.834;8.736;2023-12-07T07:27:59;15.60;83.60
28484;DHT22;15704;48.834;8.736;2023-12-07T07:30:25;15.60;83.60
28484;DHT22;15704;48.834;8.736;2023-12-07T07:32:53;15.60;83.70
28484;DHT22;15704;48.834;8.736;2023-12-07T07:35:20;15.60;83.70
28484;DHT22;15704;48.834;8.736;2023-12-07T07:37:47;15.60;83.70
28484;DHT22;15704;48.834;8.736;2023-12-07T07:40:14;15.60;83.60
28484;DHT22;15704;48.834;8.736;2023-12-07T07:42:41;15.60;83.60
28484;DHT22;15704;48.834;8.736;2023-12-07T07:45:08;15.60;83.60
28484;DHT22;15704;48.834;8.736;2023-12-07T07:47:36;15.60;83.60
28484;DHT22;15704;48.834;8.736;2023-12-07T07:50:04;15.60;83.60
28484;DHT22;15704;48.834;8.736;2023-12-07T07:52:33;15.60;83.50
28484;DHT22;15704;48.834;8.736;2023-12-07T07:55:01;15.60;83.50
28484;DHT22;15704;48.834;8.736;2023-12-07T07:57:29;15.60;83.50
28484;DHT22;15704;48.834;8.736;2023-12-07T07:59:57;15.60;83.50
28484;DHT22;15704;48.834;8.736;2023-12-07T08:02:24;15.60;83.50
28484;DHT22;15704;48.834;8.736;2023-12-07T08:04:51;15.60;83.50
28484;DHT22;15704;48.834;8.736;2023-12-07T08:07:18;15.60;83.50
28484;DHT22;15704;48.834;8.736;2023-12-07T08:09:45;15.60;83.50
28484;DHT22;15704;48.834;8.736;2023-12-07T08:12:12;15.60;83.60
28484;DHT22;15704;48.834;8.736;2023-12-07T08:14:39;15.60;83.60
28484;DHT22;15704;48.834;8.736;2023-12-07T08:17:06;15.60;83.50
28484;DHT22;15704;48.834;8.736;2023-12-07T08:19:33;15.60;83.60
28484;DHT22;15704;48.834;8.736;2023-12-07T08:22:00;15.60;83.60
28484;DHT22;15704;48.834;8.736;2023-12-07T08:24:27;15.60;83.50
28484;DHT22;15704;48.834;8.736;2023-12-07T08:26:54;15.60;83.60
28484;DHT22;15704;48.834;8.736;2023-12-07T08:29:21;15.60;83.50
28484;DHT22;15704;48.834;8.736;2023-12-07T08:31:47;15.60;83.50
28484;DHT22;15704;48.834;8.736;2023-12-07T08:34:15;15.60;83.50
28484;DHT22;15704;48.834;8.736;2023-12-07T08:36:41;15.60;83.50
28484;DHT22;15704;48.834;8.736;2023-12-07T08:39:08;15.60;83.50
28484;DHT22;15704;48.834;8.736;2023-12-07T08:41:37;15.60;83.50
28484;DHT22;15704;48.834;8.736;2023-12-07T08:44:05;15.60;83.50
28484;DHT22;15704;48.834;8.736;2023-12-07T08:46:35;15.60;83.50
28484;DHT22;15704;48.834;8.736;2023-12-07T08:49:02;15.60;83.50
28484;DHT22;15704;48.834;8.736;2023-12-07T08:51:29;15.60;83.30
28484;DHT22;15704;48.834;8.736;2023-12-07T08:53:56;15.70;83.40
28484;DHT22;15704;48.834;8.736;2023-12-07T08:56:23;15.60;83.20
28484;DHT22;15704;48.834;8.736;2023-12-07T08:58:50;15.70;83.20
28484;DHT22;15704;48.834;8.736;2023-12-07T09:01:17;15.70;83.20
28484;DHT22;15704;48.834;8.736;2023-12-07T09:03:58;15.80;83.10
28484;DHT22;15704;48.834;8.736;2023-12-07T09:06:25;15.70;83.10
28484;DHT22;15704;48.834;8.736;2023-12-07T09:08:52;15.70;83.10
28484;DHT22;15704;48.834;8.736;2023-12-07T09:11:19;15.70;83.20
28484;DHT22;15704;48.834;8.736;2023-12-07T09:13:46;15.60;83.50
28484;DHT22;15704;48.834;8.736;2023-12-07T09:16:13;15.40;83.60
28484;DHT22;15704;48.834;8.736;2023-12-07T09:18:42;15.40;84.00
28484;DHT22;15704;48.834;8.736;2023-12-07T09:21:09;15.20;84.20
28484;DHT22;15704;48.834;8.736;2023-12-07T09:23:36;15.10;84.70
28484;DHT22;15704;48.834;8.736;2023-12-07T09:26:04;15.00;85.00
28484;DHT22;15704;48.834;8.736;2023-12-07T09:28:31;14.80;85.30
28484;DHT22;15704;48.834;8.736;2023-12-07T09:31:00;14.70;85.70
28484;DHT22;15704;48.834;8.736;2023-12-07T09:33:27;14.60;86.10
28484;DHT22;15704;48.834;8.736;2023-12-07T09:35:54;14.50;86.50
28484;DHT22;15704;48.834;8.736;2023-12-07T09:38:20;14.40;86.80
28484;DHT22;15704;48.834;8.736;2023-12-07T09:40:51;14.30;87.70
28484;DHT22;15704;48.834;8.736;2023-12-07T09:43:18;14.30;87.00
28484;DHT22;15704;48.834;8.736;2023-12-07T09:45:45;14.30;87.10
28484;DHT22;15704;48.834;8.736;2023-12-07T09:48:13;14.30;87.00
28484;DHT22;15704;48.834;8.736;2023-12-07T09:50:42;14.40;86.90
28484;DHT22;15704;48.834;8.736;2023-12-07T09:53:08;14.50;86.70
28484;DHT22;15704;48.834;8.736;2023-12-07T09:55:35;14.60;86.40
28484;DHT22;15704;48.834;8.736;2023-12-07T09:58:08;14.60;86.10
28484;DHT22;15704;48.834;8.736;2023-12-07T10:00:36;14.80;85.90
28484;DHT22;15704;48.834;8.736;2023-12-07T10:03:05;14.80;85.60
28484;DHT22;15704;48.834;8.736;2023-12-07T10:05:43;14.90;85.30
28484;DHT22;15704;48.834;8.736;2023-12-07T10:08:29;15.00;85.80
28484;DHT22;15704;48.834;8.736;2023-12-07T10:11:09;15.10;84.70
28484;DHT22;15704;48.834;8.736;2023-12-07T10:13:40;15.20;84.60
28484;DHT22;15704;48.834;8.736;2023-12-07T10:18:37;15.30;84.10
28484;DHT22;15704;48.834;8.736;2023-12-07T10:21:08;15.40;84.00
28484;DHT22;15704;48.834;8.736;2023-12-07T10:23:40;15.40;83.80
28484;DHT22;15704;48.834;8.736;2023-12-07T10:26:07;15.40;83.80
28484;DHT22;15704;48.834;8.736;2023-12-07T10:28:37;15.50;83.70
28484;DHT22;15704;48.834;8.736;2023-12-07T10:31:09;15.50;83.60
28484;DHT22;15704;48.834;8.736;2023-12-07T10:33:37;15.50;83.50
28484;DHT22;15704;48.834;8.736;2023-12-07T10:36:04;15.50;83.40
28484;DHT22;15704;48.834;8.736;2023-12-07T10:38:33;15.60;83.30
28484;DHT22;15704;48.834;8.736;2023-12-07T10:41:07;15.60;83.30
28484;DHT22;15704;48.834;8.736;2023-12-07T10:43:42;15.60;83.10
28484;DHT22;15704;48.834;8.736;2023-12-07T10:46:09;15.60;83.10
28484;DHT22;15704;48.834;8.736;2023-12-07T10:48:39;15.60;83.90
28484;DHT22;15704;48.834;8.736;2023-12-07T10:51:09;15.70;83.00
28484;DHT22;15704;48.834;8.736;2023-12-07T10:53:40;15.70;83.00
28484;DHT22;15704;48.834;8.736;2023-12-07T10:56:10;15.70;83.00
28484;DHT22;15704;48.834;8.736;2023-12-07T10:58:39;15.70;82.80
28484;DHT22;15704;48.834;8.736;2023-12-07T11:01:07;15.70;82.90
28484;DHT22;15704;48.834;8.736;2023-12-07T11:03:36;15.70;82.90
28484;DHT22;15704;48.834;8.736;2023-12-07T11:06:04;15.70;82.80
28484;DHT22;15704;48.834;8.736;2023-12-07T11:11:09;15.80;82.90
28484;DHT22;15704;48.834;8.736;2023-12-07T11:13:50;15.80;82.80
28484;DHT22;15704;48.834;8.736;2023-12-07T11:18:59;15.80;82.80
28484;DHT22;15704;48.834;8.736;2023-12-07T11:21:27;15.80;82.90
28484;DHT22;15704;48.834;8.736;2023-12-07T11:23:59;15.80;82.80
28484;DHT22;15704;48.834;8.736;2023-12-07T11:26:27;15.90;82.90
28484;DHT22;15704;48.834;8.736;2023-12-07T11:28:55;15.80;82.80
28484;DHT22;15704;48.834;8.736;2023-12-07T11:31:23;15.80;83.00
28484;DHT22;15704;48.834;8.736;2023-12-07T11:33:50;15.70;83.00
28484;DHT22;15704;48.834;8.736;2023-12-07T11:36:17;15.60;83.30
28484;DHT22;15704;48.834;8.736;2023-12-07T11:41:29;15.40;83.80
28484;DHT22;15704;48.834;8.736;2023-12-07T11:43:59;15.40;84.00
28484;DHT22;15704;48.834;8.736;2023-12-07T11:46:26;15.30;84.20
28484;DHT22;15704;48.834;8.736;2023-12-07T11:48:54;15.20;84.40
28484;DHT22;15704;48.834;8.736;2023-12-07T11:51:21;15.20;84.60
28484;DHT22;15704;48.834;8.736;2023-12-07T11:53:48;15.20;84.70
28484;DHT22;15704;48.834;8.736;2023-12-07T11:56:17;15.10;84.80
28484;DHT22;15704;48.834;8.736;2023-12-07T11:58:47;15.10;85.00
28484;DHT22;15704;48.834;8.736;2023-12-07T12:01:16;15.00;85.20
28484;DHT22;15704;48.834;8.736;2023-12-07T12:03:43;14.80;85.40
28484;DHT22;15704;48.834;8.736;2023-12-07T12:06:10;14.80;85.60
28484;DHT22;15704;48.834;8.736;2023-12-07T12:08:40;14.70;85.90
28484;DHT22;15704;48.834;8.736;2023-12-07T12:11:08;14.70;86.10
28484;DHT22;15704;48.834;8.736;2023-12-07T12:13:36;14.60;86.20
28484;DHT22;15704;48.834;8.736;2023-12-07T12:16:04;14.60;86.30
28484;DHT22;15704;48.834;8.736;2023-12-07T12:18:33;14.60;86.50
28484;DHT22;15704;48.834;8.736;2023-12-07T12:21:03;14.60;86.40
28484;DHT22;15704;48.834;8.736;2023-12-07T12:23:30;14.60;86.50
28484;DHT22;15704;48.834;8.736;2023-12-07T12:25:57;14.60;86.40
28484;DHT22;15704;48.834;8.736;2023-12-07T12:28:25;14.60;86.20
28484;DHT22;15704;48.834;8.736;2023-12-07T12:30:52;14.60;86.30
28484;DHT22;15704;48.834;8.736;2023-12-07T12:33:19;14.60;86.20
28484;DHT22;15704;48.834;8.736;2023-12-07T12:35:46;14.60;86.20
28484;DHT22;15704;48.834;8.736;2023-12-07T12:38:13;14.60;86.30
28484;DHT22;15704;48.834;8.736;2023-12-07T12:40:54;14.50;86.40
28484;DHT22;15704;48.834;8.736;2023-12-07T12:43:21;14.50;86.60
28484;DHT22;15704;48.834;8.736;2023-12-07T12:45:51;14.40;86.80
28484;DHT22;15704;48.834;8.736;2023-12-07T12:48:32;14.40;86.90
28484;DHT22;15704;48.834;8.736;2023-12-07T12:51:08;14.30;87.00
28484;DHT22;15704;48.834;8.736;2023-12-07T12:53:35;14.30;87.10
28484;DHT22;15704;48.834;8.736;2023-12-07T12:56:03;14.30;87.10
28484;DHT22;15704;48.834;8.736;2023-12-07T12:58:30;14.30;87.10
28484;DHT22;15704;48.834;8.736;2023-12-07T13:00:57;14.40;87.10
28484;DHT22;15704;48.834;8.736;2023-12-07T13:03:24;14.40;87.00
28484;DHT22;15704;48.834;8.736;2023-12-07T13:05:51;14.40;86.80
28484;DHT22;15704;48.834;8.736;2023-12-07T13:08:18;14.40;86.80
28484;DHT22;15704;48.834;8.736;2023-12-07T13:10:45;14.50;86.70
28484;DHT22;15704;48.834;8.736;2023-12-07T13:13:12;14.50;86.50
28484;DHT22;15704;48.834;8.736;2023-12-07T13:15:38;14.60;86.40
28484;DHT22;15704;48.834;8.736;2023-12-07T13:18:07;14.60;86.20
28484;DHT22;15704;48.834;8.736;2023-12-07T13:20:48;14.70;86.10
28484;DHT22;15704;48.834;8.736;2023-12-07T13:23:22;14.70;85.90
28484;DHT22;15704;48.834;8.736;2023-12-07T13:25:50;14.80;85.80
28484;DHT22;15704;48.834;8.736;2023-12-07T13:28:24;14.80;85.60
28484;DHT22;15704;48.834;8.736;2023-12-07T13:30:52;14.80;85.50
28484;DHT22;15704;48.834;8.736;2023-12-07T13:33:20;14.90;85.50
28484;DHT22;15704;48.834;8.736;2023-12-07T13:35:54;14.90;85.30
28484;DHT22;15704;48.834;8.736;2023-12-07T13:38:22;15.00;85.20
28484;DHT22;15704;48.834;8.736;2023-12-07T13:40:50;15.00;85.10
28484;DHT22;15704;48.834;8.736;2023-12-07T13:43:17;15.00;85.10
28484;DHT22;15704;48.834;8.736;2023-12-07T13:45:45;15.00;84.90
28484;DHT22;15704;48.834;8.736;2023-12-07T13:48:12;15.10;84.70
28484;DHT22;15704;48.834;8.736;2023-12-07T13:50:40;15.10;84.60
28484;DHT22;15704;48.834;8.736;2023-12-07T13:53:07;15.20;84.50
28484;DHT22;15704;48.834;8.736;2023-12-07T13:55:40;15.20;84.40
28484;DHT22;15704;48.834;8.736;2023-12-07T13:58:08;15.30;84.40
28484;DHT22;15704;48.834;8.736;2023-12-07T14:00:42;15.30;84.20
28484;DHT22;15704;48.834;8.736;2023-12-07T14:03:12;15.30;84.10
28484;DHT22;15704;48.834;8.736;2023-12-07T14:05:39;15.30;84.00
28484;DHT22;15704;48.834;8.736;2023-12-07T14:08:07;15.30;84.00
28484;DHT22;15704;48.834;8.736;2023-12-07T14:10:34;15.30;84.00
28484;DHT22;15704;48.834;8.736;2023-12-07T14:13:01;15.30;84.10
28484;DHT22;15704;48.834;8.736;2023-12-07T14:15:28;15.30;84.20
28484;DHT22;15704;48.834;8.736;2023-12-07T14:18:10;15.20;84.50
28484;DHT22;15704;48.834;8.736;2023-12-07T14:20:37;15.10;84.60
28484;DHT22;15704;48.834;8.736;2023-12-07T14:23:24;15.00;84.80
28484;DHT22;15704;48.834;8.736;2023-12-07T14:25:51;15.00;84.90
28484;DHT22;15704;48.834;8.736;2023-12-07T14:28:18;15.00;85.10
28484;DHT22;15704;48.834;8.736;2023-12-07T14:30:45;15.00;85.20
28484;DHT22;15704;48.834;8.736;2023-12-07T14:33:12;14.90;85.20
28484;DHT22;15704;48.834;8.736;2023-12-07T14:35:39;15.00;85.20
28484;DHT22;15704;48.834;8.736;2023-12-07T14:38:06;14.90;85.10
28484;DHT22;15704;48.834;8.736;2023-12-07T14:40:33;15.00;85.10
28484;DHT22;15704;48.834;8.736;2023-12-07T14:43:01;15.00;85.10
28484;DHT22;15704;48.834;8.736;2023-12-07T14:45:27;15.10;85.00
28484;DHT22;15704;48.834;8.736;2023-12-07T14:47:54;15.10;84.90
28484;DHT22;15704;48.834;8.736;2023-12-07T14:50:21;15.10;84.70
28484;DHT22;15704;48.834;8.736;2023-12-07T14:52:48;15.20;84.60
28484;DHT22;15704;48.834;8.736;2023-12-07T14:55:16;15.20;84.40
28484;DHT22;15704;48.834;8.736;2023-12-07T14:57:45;15.30;84.30
28484;DHT22;15704;48.834;8.736;2023-12-07T15:00:12;15.30;84.20
28484;DHT22;15704;48.834;8.736;2023-12-07T15:02:39;15.30;84.10
28484;DHT22;15704;48.834;8.736;2023-12-07T15:05:06;15.30;84.00
28484;DHT22;15704;48.834;8.736;2023-12-07T15:07:34;15.40;84.00
28484;DHT22;15704;48.834;8.736;2023-12-07T15:10:04;15.30;83.90
28484;DHT22;15704;48.834;8.736;2023-12-07T15:12:31;15.40;83.90
28484;DHT22;15704;48.834;8.736;2023-12-07T15:14:58;15.40;83.80
28484;DHT22;15704;48.834;8.736;2023-12-07T15:17:25;15.40;83.70
28484;DHT22;15704;48.834;8.736;2023-12-07T15:19:55;15.40;83.60
28484;DHT22;15704;48.834;8.736;2023-12-07T15:22:22;15.50;83.60
28484;DHT22;15704;48.834;8.736;2023-12-07T15:24:49;15.50;83.60
28484;DHT22;15704;48.834;8.736;2023-12-07T15:27:20;15.50;83.50
28484;DHT22;15704;48.834;8.736;2023-12-07T15:29:47;15.60;83.50
28484;DHT22;15704;48.834;8.736;2023-12-07T15:32:14;15.50;83.40
28484;DHT22;15704;48.834;8.736;2023-12-07T15:34:41;15.60;83.40
28484;DHT22;15704;48.834;8.736;2023-12-07T15:37:09;15.60;83.30
28484;DHT22;15704;48.834;8.736;2023-12-07T15:39:39;15.60;83.30
28484;DHT22;15704;48.834;8.736;2023-12-07T15:42:07;15.60;83.20
28484;DHT22;15704;48.834;8.736;2023-12-07T15:44:37;15.60;83.10
28484;DHT22;15704;48.834;8.736;2023-12-07T15:47:04;15.60;83.10
28484;DHT22;15704;48.834;8.736;2023-12-07T15:49:31;15.60;83.10